sensor_id;sensor_type;location;lat;lon;timestamp;pressure;altitude;pressure_sealevel;temperature;humidity
30967;BME280;17649;51.836;8.330;2023-05-10T00:02:34;100167.59;;;16.00;nan
30967;BME280;17649;51.836;8.330;2023-05-10T00:05:35;100174.19;;;16.04;nan
30967;BME280;17649;51.836;8.330;2023-05-10T00:08:35;100163.63;;;16.05;nan
30967;BME280;17649;51.836;8.330;2023-05-10T00:11:35;100169.81;;;16.04;nan
30967;BME280;17649;51.836;8.330;2023-05-10T00:14:35;100166.56;;;16.12;nan
30967;BME280;17649;51.836;8.330;2023-05-10T00:17:36;100163.25;;;16.10;nan
30967;BME280;17649;51.836;8.330;2023-05-10T00:20:36;100153.50;;;16.12;nan
30967;BME280;17649;51.836;8.330;2023-05-10T00:23:36;100162.56;;;16.08;nan
30967;BME280;17649;51.836;8.330;2023-05-10T00:26:36;100173.56;;;16.12;nan
30967;BME280;17649;51.836;8.330;2023-05-10T00:29:36;100160.25;;;16.15;nan
30967;BME280;17649;51.836;8.330;2023-05-10T00:32:37;100166.97;;;16.17;nan
30967;BME280;17649;51.836;8.330;2023-05-10T00:35:37;100156.81;;;16.14;nan
30967;BME280;17649;51.836;8.330;2023-05-10T00:38:37;100151.59;;;16.14;nan
30967;BME280;17649;51.836;8.330;2023-05-10T00:41:38;100151.72;;;16.13;nan
30967;BME280;17649;51.836;8.330;2023-05-10T00:44:38;100157.75;;;16.13;nan
30967;BME280;17649;51.836;8.330;2023-05-10T00:47:38;100149.81;;;16.15;nan
30967;BME280;17649;51.836;8.330;2023-05-10T00:50:39;100153.25;;;16.15;nan
30967;BME280;17649;51.836;8.330;2023-05-10T00:53:40;100144.72;;;16.13;nan
30967;BME280;17649;51.836;8.330;2023-05-10T00:56:40;100144.81;;;16.02;nan
30967;BME280;17649;51.836;8.330;2023-05-10T00:59:40;100156.13;;;15.91;nan
30967;BME280;17649;51.836;8.330;2023-05-10T01:02:41;100145.84;;;15.90;nan
30967;BME280;17649;51.836;8.330;2023-05-10T01:05:41;100154.25;;;15.93;nan
30967;BME280;17649;51.836;8.330;2023-05-10T01:08:41;100152.75;;;15.59;nan
30967;BME280;17649;51.836;8.330;2023-05-10T01:11:42;100160.91;;;15.44;nan
30967;BME280;17649;51.836;8.330;2023-05-10T01:14:42;100149.56;;;15.66;nan
30967;BME280;17649;51.836;8.330;2023-05-10T01:17:43;100160.03;;;15.76;nan
30967;BME280;17649;51.836;8.330;2023-05-10T01:20:44;100163.88;;;15.72;nan
30967;BME280;17649;51.836;8.330;2023-05-10T01:33:40;100163.41;;;15.14;nan
30967;BME280;17649;51.836;8.330;2023-05-10T01:36:45;100162.63;;;15.02;nan
30967;BME280;17649;51.836;8.330;2023-05-10T01:42:53;100165.81;;;14.74;nan
30967;BME280;17649;51.836;8.330;2023-05-10T01:48:57;100170.22;;;14.51;nan
30967;BME280;17649;51.836;8.330;2023-05-10T01:52:00;100170.06;;;14.41;nan
30967;BME280;17649;51.836;8.330;2023-05-10T01:55:11;100172.91;;;14.38;nan
30967;BME280;17649;51.836;8.330;2023-05-10T01:58:14;100183.06;;;14.41;nan
30967;BME280;17649;51.836;8.330;2023-05-10T02:01:15;100168.44;;;14.51;nan
30967;BME280;17649;51.836;8.330;2023-05-10T02:04:16;100173.75;;;14.61;nan
30967;BME280;17649;51.836;8.330;2023-05-10T02:07:17;100177.19;;;14.50;nan
30967;BME280;17649;51.836;8.330;2023-05-10T02:10:18;100185.38;;;14.46;nan
30967;BME280;17649;51.836;8.330;2023-05-10T02:13:18;100177.31;;;14.49;nan
30967;BME280;17649;51.836;8.330;2023-05-10T02:16:19;100178.47;;;14.56;nan
30967;BME280;17649;51.836;8.330;2023-05-10T02:19:23;100183.56;;;14.69;nan
30967;BME280;17649;51.836;8.330;2023-05-10T02:22:25;100178.59;;;14.66;nan
30967;BME280;17649;51.836;8.330;2023-05-10T02:25:26;100187.34;;;14.65;nan
30967;BME280;17649;51.836;8.330;2023-05-10T02:28:27;100183.56;;;14.69;nan
30967;BME280;17649;51.836;8.330;2023-05-10T02:31:28;100185.06;;;14.71;nan
30967;BME280;17649;51.836;8.330;2023-05-10T02:34:28;100186.41;;;14.66;nan
30967;BME280;17649;51.836;8.330;2023-05-10T02:37:29;100185.56;;;14.65;nan
30967;BME280;17649;51.836;8.330;2023-05-10T02:40:30;100181.19;;;14.66;nan
30967;BME280;17649;51.836;8.330;2023-05-10T02:43:32;100182.84;;;14.55;nan
30967;BME280;17649;51.836;8.330;2023-05-10T02:46:33;100181.31;;;14.53;nan
30967;BME280;17649;51.836;8.330;2023-05-10T02:49:34;100174.56;;;14.39;nan
30967;BME280;17649;51.836;8.330;2023-05-10T02:52:44;100181.56;;;14.16;nan
30967;BME280;17649;51.836;8.330;2023-05-10T02:55:47;100182.72;;;14.23;nan
30967;BME280;17649;51.836;8.330;2023-05-10T02:58:49;100184.63;;;14.32;nan
30967;BME280;17649;51.836;8.330;2023-05-10T03:01:49;100180.72;;;14.27;nan
30967;BME280;17649;51.836;8.330;2023-05-10T03:04:49;100189.94;;;14.20;nan
30967;BME280;17649;51.836;8.330;2023-05-10T03:07:49;100186.28;;;14.33;nan
30967;BME280;17649;51.836;8.330;2023-05-10T03:20:35;100207.91;;;14.12;nan
30967;BME280;17649;51.836;8.330;2023-05-10T03:23:53;100202.94;;;14.09;nan
30967;BME280;17649;51.836;8.330;2023-05-10T03:26:58;100201.53;;;14.05;nan
30967;BME280;17649;51.836;8.330;2023-05-10T03:30:02;100203.53;;;14.12;nan
30967;BME280;17649;51.836;8.330;2023-05-10T03:33:05;100206.03;;;14.14;nan
30967;BME280;17649;51.836;8.330;2023-05-10T03:36:06;100211.09;;;14.04;nan
30967;BME280;17649;51.836;8.330;2023-05-10T03:39:06;100220.91;;;14.00;nan
30967;BME280;17649;51.836;8.330;2023-05-10T03:42:07;100219.69;;;13.82;nan
30967;BME280;17649;51.836;8.330;2023-05-10T03:45:07;100223.72;;;13.51;nan
30967;BME280;17649;51.836;8.330;2023-05-10T03:48:07;100227.19;;;13.63;nan
30967;BME280;17649;51.836;8.330;2023-05-10T03:51:08;100232.75;;;13.58;nan
30967;BME280;17649;51.836;8.330;2023-05-10T03:54:08;100229.50;;;13.79;nan
30967;BME280;17649;51.836;8.330;2023-05-10T03:57:08;100240.16;;;13.52;nan
30967;BME280;17649;51.836;8.330;2023-05-10T04:00:09;100245.63;;;13.60;nan
30967;BME280;17649;51.836;8.330;2023-05-10T04:03:10;100243.50;;;13.65;nan
30967;BME280;17649;51.836;8.330;2023-05-10T04:06:10;100243.97;;;13.59;nan
30967;BME280;17649;51.836;8.330;2023-05-10T04:09:11;100247.41;;;13.59;nan
30967;BME280;17649;51.836;8.330;2023-05-10T04:12:12;100249.94;;;13.48;nan
30967;BME280;17649;51.836;8.330;2023-05-10T04:15:12;100248.38;;;13.69;nan
30967;BME280;17649;51.836;8.330;2023-05-10T04:18:12;100254.53;;;13.45;nan
30967;BME280;17649;51.836;8.330;2023-05-10T04:21:12;100262.81;;;13.50;nan
30967;BME280;17649;51.836;8.330;2023-05-10T04:24:13;100270.72;;;13.72;nan
30967;BME280;17649;51.836;8.330;2023-05-10T04:27:13;100263.63;;;13.74;nan
30967;BME280;17649;51.836;8.330;2023-05-10T04:30:14;100261.06;;;13.50;nan
30967;BME280;17649;51.836;8.330;2023-05-10T04:33:14;100257.78;;;13.35;nan
30967;BME280;17649;51.836;8.330;2023-05-10T04:36:15;100264.75;;;13.59;nan
30967;BME280;17649;51.836;8.330;2023-05-10T04:39:15;100263.34;;;13.55;nan
30967;BME280;17649;51.836;8.330;2023-05-10T04:42:15;100269.38;;;13.55;nan
30967;BME280;17649;51.836;8.330;2023-05-10T04:45:15;100273.34;;;13.48;nan
30967;BME280;17649;51.836;8.330;2023-05-10T04:48:15;100279.47;;;13.47;nan
30967;BME280;17649;51.836;8.330;2023-05-10T04:51:16;100278.75;;;13.45;nan
30967;BME280;17649;51.836;8.330;2023-05-10T04:54:16;100288.69;;;13.51;nan
30967;BME280;17649;51.836;8.330;2023-05-10T04:57:16;100291.63;;;13.47;nan
30967;BME280;17649;51.836;8.330;2023-05-10T05:00:16;100293.97;;;13.62;nan
30967;BME280;17649;51.836;8.330;2023-05-10T05:03:17;100303.66;;;13.60;nan
30967;BME280;17649;51.836;8.330;2023-05-10T05:06:17;100305.13;;;13.52;nan
30967;BME280;17649;51.836;8.330;2023-05-10T05:09:17;100310.63;;;13.60;nan
30967;BME280;17649;51.836;8.330;2023-05-10T05:12:17;100304.63;;;13.47;nan
30967;BME280;17649;51.836;8.330;2023-05-10T05:15:17;100313.63;;;13.54;nan
30967;BME280;17649;51.836;8.330;2023-05-10T05:18:17;100313.81;;;13.39;nan
30967;BME280;17649;51.836;8.330;2023-05-10T05:21:18;100325.34;;;13.35;nan
30967;BME280;17649;51.836;8.330;2023-05-10T05:24:19;100330.25;;;13.64;nan
30967;BME280;17649;51.836;8.330;2023-05-10T05:27:19;100324.97;;;13.53;nan
30967;BME280;17649;51.836;8.330;2023-05-10T05:30:22;100328.22;;;13.56;nan
30967;BME280;17649;51.836;8.330;2023-05-10T05:33:22;100332.44;;;13.33;nan
30967;BME280;17649;51.836;8.330;2023-05-10T05:36:22;100340.16;;;13.59;nan
30967;BME280;17649;51.836;8.330;2023-05-10T05:39:22;100340.03;;;13.60;nan
30967;BME280;17649;51.836;8.330;2023-05-10T05:42:23;100337.53;;;13.35;nan
30967;BME280;17649;51.836;8.330;2023-05-10T05:45:23;100342.81;;;13.70;nan
30967;BME280;17649;51.836;8.330;2023-05-10T05:48:23;100342.63;;;13.60;nan
30967;BME280;17649;51.836;8.330;2023-05-10T05:51:24;100343.56;;;13.83;nan
30967;BME280;17649;51.836;8.330;2023-05-10T05:54:24;100341.34;;;13.90;nan
30967;BME280;17649;51.836;8.330;2023-05-10T05:57:24;100344.00;;;14.01;nan
30967;BME280;17649;51.836;8.330;2023-05-10T06:00:26;100348.31;;;14.24;nan
30967;BME280;17649;51.836;8.330;2023-05-10T06:03:26;100358.41;;;14.29;nan
30967;BME280;17649;51.836;8.330;2023-05-10T06:06:26;100353.91;;;13.96;nan
30967;BME280;17649;51.836;8.330;2023-05-10T06:09:27;100352.34;;;14.17;nan
30967;BME280;17649;51.836;8.330;2023-05-10T06:12:28;100357.72;;;14.03;nan
30967;BME280;17649;51.836;8.330;2023-05-10T06:15:28;100361.00;;;14.29;nan
30967;BME280;17649;51.836;8.330;2023-05-10T06:18:28;100363.63;;;14.40;nan
30967;BME280;17649;51.836;8.330;2023-05-10T06:21:28;100360.97;;;14.18;nan
30967;BME280;17649;51.836;8.330;2023-05-10T06:24:29;100375.88;;;14.16;nan
30967;BME280;17649;51.836;8.330;2023-05-10T06:27:30;100375.16;;;14.25;nan
30967;BME280;17649;51.836;8.330;2023-05-10T06:30:30;100379.56;;;14.24;nan
30967;BME280;17649;51.836;8.330;2023-05-10T06:33:30;100383.97;;;14.35;nan
30967;BME280;17649;51.836;8.330;2023-05-10T06:36:31;100378.94;;;14.21;nan
30967;BME280;17649;51.836;8.330;2023-05-10T06:39:31;100388.47;;;14.33;nan
30967;BME280;17649;51.836;8.330;2023-05-10T06:42:31;100392.44;;;14.50;nan
30967;BME280;17649;51.836;8.330;2023-05-10T06:45:32;100393.78;;;14.43;nan
30967;BME280;17649;51.836;8.330;2023-05-10T06:48:32;100396.22;;;14.46;nan
30967;BME280;17649;51.836;8.330;2023-05-10T06:51:32;100390.34;;;14.66;nan
30967;BME280;17649;51.836;8.330;2023-05-10T06:54:32;100390.25;;;15.01;nan
30967;BME280;17649;51.836;8.330;2023-05-10T06:57:33;100385.66;;;15.05;nan
30967;BME280;17649;51.836;8.330;2023-05-10T07:00:33;100391.41;;;15.31;nan
30967;BME280;17649;51.836;8.330;2023-05-10T07:03:33;100382.09;;;15.83;nan
30967;BME280;17649;51.836;8.330;2023-05-10T07:06:33;100384.03;;;15.47;nan
30967;BME280;17649;51.836;8.330;2023-05-10T07:09:34;100400.88;;;15.43;nan
30967;BME280;17649;51.836;8.330;2023-05-10T07:12:34;100398.28;;;15.54;nan
30967;BME280;17649;51.836;8.330;2023-05-10T07:15:34;100390.94;;;15.59;nan
30967;BME280;17649;51.836;8.330;2023-05-10T07:18:34;100393.63;;;15.58;nan
30967;BME280;17649;51.836;8.330;2023-05-10T07:21:35;100391.59;;;15.84;nan
30967;BME280;17649;51.836;8.330;2023-05-10T07:24:36;100395.41;;;15.79;nan
30967;BME280;17649;51.836;8.330;2023-05-10T07:27:36;100395.84;;;15.85;nan
30967;BME280;17649;51.836;8.330;2023-05-10T07:30:36;100400.00;;;15.87;nan
30967;BME280;17649;51.836;8.330;2023-05-10T07:33:36;100400.63;;;15.46;nan
30967;BME280;17649;51.836;8.330;2023-05-10T07:36:36;100408.00;;;15.41;nan
30967;BME280;17649;51.836;8.330;2023-05-10T07:39:37;100397.56;;;15.52;nan
30967;BME280;17649;51.836;8.330;2023-05-10T07:42:37;100407.25;;;15.72;nan
30967;BME280;17649;51.836;8.330;2023-05-10T07:45:38;100395.44;;;16.00;nan
30967;BME280;17649;51.836;8.330;2023-05-10T07:48:38;100395.72;;;16.18;nan
30967;BME280;17649;51.836;8.330;2023-05-10T07:51:38;100397.59;;;16.48;nan
30967;BME280;17649;51.836;8.330;2023-05-10T07:54:38;100387.38;;;17.17;nan
30967;BME280;17649;51.836;8.330;2023-05-10T07:57:39;100389.41;;;17.54;nan
30967;BME280;17649;51.836;8.330;2023-05-10T08:00:39;100385.91;;;17.84;nan
30967;BME280;17649;51.836;8.330;2023-05-10T08:03:41;100383.41;;;16.92;nan
30967;BME280;17649;51.836;8.330;2023-05-10T08:06:41;100400.84;;;16.61;nan
30967;BME280;17649;51.836;8.330;2023-05-10T08:09:41;100408.94;;;16.37;nan
30967;BME280;17649;51.836;8.330;2023-05-10T08:12:41;100406.72;;;16.54;nan
30967;BME280;17649;51.836;8.330;2023-05-10T08:15:42;100404.28;;;16.62;nan
30967;BME280;17649;51.836;8.330;2023-05-10T08:18:43;100414.03;;;16.60;nan
30967;BME280;17649;51.836;8.330;2023-05-10T08:21:44;100415.25;;;16.56;nan
30967;BME280;17649;51.836;8.330;2023-05-10T08:24:44;100417.38;;;16.30;nan
30967;BME280;17649;51.836;8.330;2023-05-10T08:27:45;100423.13;;;16.65;nan
30967;BME280;17649;51.836;8.330;2023-05-10T08:30:45;100421.00;;;16.71;nan
30967;BME280;17649;51.836;8.330;2023-05-10T08:33:45;100417.78;;;16.88;nan
30967;BME280;17649;51.836;8.330;2023-05-10T08:36:45;100426.38;;;16.99;nan
30967;BME280;17649;51.836;8.330;2023-05-10T08:39:46;100422.50;;;16.94;nan
30967;BME280;17649;51.836;8.330;2023-05-10T08:42:50;100420.97;;;17.22;nan
30967;BME280;17649;51.836;8.330;2023-05-10T08:45:51;100430.25;;;17.05;nan
30967;BME280;17649;51.836;8.330;2023-05-10T08:48:53;100422.13;;;17.29;nan
30967;BME280;17649;51.836;8.330;2023-05-10T08:51:54;100433.56;;;17.07;nan
30967;BME280;17649;51.836;8.330;2023-05-10T08:54:55;100430.31;;;17.15;nan
30967;BME280;17649;51.836;8.330;2023-05-10T08:57:55;100426.50;;;17.69;nan
30967;BME280;17649;51.836;8.330;2023-05-10T09:00:55;100434.16;;;18.39;nan
30967;BME280;17649;51.836;8.330;2023-05-10T09:03:55;100425.59;;;18.47;nan
30967;BME280;17649;51.836;8.330;2023-05-10T09:06:56;100430.44;;;18.23;nan
30967;BME280;17649;51.836;8.330;2023-05-10T09:09:56;100429.06;;;18.18;nan
30967;BME280;17649;51.836;8.330;2023-05-10T09:12:57;100428.75;;;18.12;nan
30967;BME280;17649;51.836;8.330;2023-05-10T09:15:57;100423.91;;;18.56;nan
30967;BME280;17649;51.836;8.330;2023-05-10T09:18:57;100430.44;;;18.23;nan
30967;BME280;17649;51.836;8.330;2023-05-10T09:21:57;100437.66;;;18.96;nan
30967;BME280;17649;51.836;8.330;2023-05-10T09:25:06;100436.88;;;18.57;nan
30967;BME280;17649;51.836;8.330;2023-05-10T09:28:07;100439.16;;;19.09;nan
30967;BME280;17649;51.836;8.330;2023-05-10T09:31:08;100439.09;;;18.13;nan
30967;BME280;17649;51.836;8.330;2023-05-10T09:34:08;100446.28;;;18.11;nan
30967;BME280;17649;51.836;8.330;2023-05-10T09:37:09;100443.25;;;18.64;nan
30967;BME280;17649;51.836;8.330;2023-05-10T09:40:17;100440.75;;;18.53;nan
30967;BME280;17649;51.836;8.330;2023-05-10T09:43:20;100444.88;;;18.56;nan
30967;BME280;17649;51.836;8.330;2023-05-10T09:46:20;100431.09;;;19.57;nan
30967;BME280;17649;51.836;8.330;2023-05-10T09:49:21;100417.22;;;20.36;nan
30967;BME280;17649;51.836;8.330;2023-05-10T09:52:22;100415.03;;;20.67;nan
30967;BME280;17649;51.836;8.330;2023-05-10T09:55:22;100420.19;;;21.28;nan
30967;BME280;17649;51.836;8.330;2023-05-10T09:58:23;100422.66;;;21.04;nan
30967;BME280;17649;51.836;8.330;2023-05-10T10:01:25;100421.06;;;20.85;nan
30967;BME280;17649;51.836;8.330;2023-05-10T10:04:26;100407.69;;;21.04;nan
30967;BME280;17649;51.836;8.330;2023-05-10T10:07:26;100413.03;;;20.61;nan
30967;BME280;17649;51.836;8.330;2023-05-10T10:10:27;100418.00;;;20.28;nan
30967;BME280;17649;51.836;8.330;2023-05-10T10:13:28;100408.09;;;20.22;nan
30967;BME280;17649;51.836;8.330;2023-05-10T10:16:28;100407.53;;;20.36;nan
30967;BME280;17649;51.836;8.330;2023-05-10T10:19:29;100420.53;;;19.67;nan
30967;BME280;17649;51.836;8.330;2023-05-10T10:22:30;100414.47;;;20.02;nan
30967;BME280;17649;51.836;8.330;2023-05-10T10:25:30;100409.75;;;20.67;nan
30967;BME280;17649;51.836;8.330;2023-05-10T10:28:40;100408.22;;;20.82;nan
30967;BME280;17649;51.836;8.330;2023-05-10T10:31:48;100402.31;;;21.56;nan
30967;BME280;17649;51.836;8.330;2023-05-10T10:34:53;100407.28;;;21.59;nan
30967;BME280;17649;51.836;8.330;2023-05-10T10:37:54;100404.50;;;21.27;nan
30967;BME280;17649;51.836;8.330;2023-05-10T10:41:02;100398.22;;;20.60;nan
30967;BME280;17649;51.836;8.330;2023-05-10T10:47:32;100401.88;;;20.05;nan
30967;BME280;17649;51.836;8.330;2023-05-10T10:50:42;100405.84;;;19.91;nan
30967;BME280;17649;51.836;8.330;2023-05-10T10:53:43;100409.44;;;19.73;nan
30967;BME280;17649;51.836;8.330;2023-05-10T10:56:44;100402.91;;;20.30;nan
30967;BME280;17649;51.836;8.330;2023-05-10T10:59:44;100405.06;;;20.78;nan
30967;BME280;17649;51.836;8.330;2023-05-10T11:02:46;100400.13;;;20.75;nan
30967;BME280;17649;51.836;8.330;2023-05-10T11:05:48;100408.50;;;20.71;nan
30967;BME280;17649;51.836;8.330;2023-05-10T11:08:48;100412.66;;;20.20;nan
30967;BME280;17649;51.836;8.330;2023-05-10T11:11:50;100426.41;;;19.51;nan
30967;BME280;17649;51.836;8.330;2023-05-10T11:14:52;100432.50;;;19.14;nan
30967;BME280;17649;51.836;8.330;2023-05-10T11:17:52;100441.13;;;18.87;nan
30967;BME280;17649;51.836;8.330;2023-05-10T11:24:00;100436.53;;;18.99;nan
30967;BME280;17649;51.836;8.330;2023-05-10T11:27:00;100430.84;;;19.13;nan
30967;BME280;17649;51.836;8.330;2023-05-10T11:30:01;100432.25;;;19.08;nan
30967;BME280;17649;51.836;8.330;2023-05-10T11:33:01;100437.28;;;19.19;nan
30967;BME280;17649;51.836;8.330;2023-05-10T11:36:01;100445.03;;;19.20;nan
30967;BME280;17649;51.836;8.330;2023-05-10T11:39:02;100442.81;;;19.25;nan
30967;BME280;17649;51.836;8.330;2023-05-10T11:42:02;100448.38;;;19.13;nan
30967;BME280;17649;51.836;8.330;2023-05-10T11:45:03;100448.25;;;20.14;nan
30967;BME280;17649;51.836;8.330;2023-05-10T11:48:03;100442.59;;;22.72;nan
30967;BME280;17649;51.836;8.330;2023-05-10T11:51:04;100439.38;;;24.94;nan
30967;BME280;17649;51.836;8.330;2023-05-10T11:54:05;100436.06;;;25.51;nan
30967;BME280;17649;51.836;8.330;2023-05-10T11:57:06;100441.94;;;24.87;nan
30967;BME280;17649;51.836;8.330;2023-05-10T12:00:06;100444.34;;;24.59;nan
30967;BME280;17649;51.836;8.330;2023-05-10T12:03:07;100450.50;;;22.97;nan
30967;BME280;17649;51.836;8.330;2023-05-10T12:06:07;100461.69;;;20.11;nan
30967;BME280;17649;51.836;8.330;2023-05-10T12:09:07;100472.47;;;18.79;nan
30967;BME280;17649;51.836;8.330;2023-05-10T12:12:08;100472.47;;;18.02;nan
30967;BME280;17649;51.836;8.330;2023-05-10T12:15:12;100480.94;;;17.84;nan
30967;BME280;17649;51.836;8.330;2023-05-10T12:18:14;100485.25;;;18.14;nan
30967;BME280;17649;51.836;8.330;2023-05-10T12:21:22;100490.81;;;20.36;nan
30967;BME280;17649;51.836;8.330;2023-05-10T12:24:22;100477.91;;;22.47;nan
30967;BME280;17649;51.836;8.330;2023-05-10T12:27:25;100459.25;;;24.75;nan
30967;BME280;17649;51.836;8.330;2023-05-10T12:30:31;100466.38;;;24.06;nan
30967;BME280;17649;51.836;8.330;2023-05-10T12:33:36;100471.63;;;22.80;nan
30967;BME280;17649;51.836;8.330;2023-05-10T12:36:38;100475.56;;;20.75;nan
30967;BME280;17649;51.836;8.330;2023-05-10T12:39:42;100484.16;;;20.23;nan
30967;BME280;17649;51.836;8.330;2023-05-10T12:42:43;100493.66;;;19.52;nan
30967;BME280;17649;51.836;8.330;2023-05-10T12:45:44;100495.34;;;18.87;nan
30967;BME280;17649;51.836;8.330;2023-05-10T12:48:47;100495.75;;;18.43;nan
30967;BME280;17649;51.836;8.330;2023-05-10T12:51:54;100505.81;;;18.09;nan
30967;BME280;17649;51.836;8.330;2023-05-10T12:54:54;100518.31;;;17.56;nan
30967;BME280;17649;51.836;8.330;2023-05-10T12:57:55;100519.34;;;17.44;nan
30967;BME280;17649;51.836;8.330;2023-05-10T13:00:55;100533.63;;;17.40;nan
30967;BME280;17649;51.836;8.330;2023-05-10T13:03:56;100540.75;;;17.07;nan
30967;BME280;17649;51.836;8.330;2023-05-10T13:06:56;100555.25;;;16.79;nan
30967;BME280;17649;51.836;8.330;2023-05-10T13:09:58;100553.28;;;16.72;nan
30967;BME280;17649;51.836;8.330;2023-05-10T13:12:59;100567.69;;;16.55;nan
30967;BME280;17649;51.836;8.330;2023-05-10T13:15:59;100577.97;;;16.24;nan
30967;BME280;17649;51.836;8.330;2023-05-10T13:18:59;100586.22;;;16.52;nan
30967;BME280;17649;51.836;8.330;2023-05-10T13:21:59;100572.53;;;16.71;nan
30967;BME280;17649;51.836;8.330;2023-05-10T13:25:00;100564.84;;;16.90;nan
30967;BME280;17649;51.836;8.330;2023-05-10T13:28:00;100568.13;;;17.54;nan
30967;BME280;17649;51.836;8.330;2023-05-10T13:31:00;100558.16;;;18.09;nan
30967;BME280;17649;51.836;8.330;2023-05-10T13:34:01;100552.03;;;18.39;nan
30967;BME280;17649;51.836;8.330;2023-05-10T13:37:01;100551.59;;;18.44;nan
30967;BME280;17649;51.836;8.330;2023-05-10T13:40:01;100546.38;;;18.44;nan
30967;BME280;17649;51.836;8.330;2023-05-10T13:43:01;100552.63;;;18.82;nan
30967;BME280;17649;51.836;8.330;2023-05-10T13:46:02;100547.25;;;18.64;nan
30967;BME280;17649;51.836;8.330;2023-05-10T13:49:02;100555.59;;;18.38;nan
30967;BME280;17649;51.836;8.330;2023-05-10T13:52:03;100553.19;;;18.66;nan
30967;BME280;17649;51.836;8.330;2023-05-10T13:55:06;100557.31;;;18.78;nan
30967;BME280;17649;51.836;8.330;2023-05-10T13:58:07;100557.97;;;18.61;nan
30967;BME280;17649;51.836;8.330;2023-05-10T14:01:07;100561.44;;;19.10;nan
30967;BME280;17649;51.836;8.330;2023-05-10T14:04:07;100559.50;;;19.49;nan
30967;BME280;17649;51.836;8.330;2023-05-10T14:07:10;100551.81;;;20.57;nan
30967;BME280;17649;51.836;8.330;2023-05-10T14:10:10;100548.25;;;22.46;nan
30967;BME280;17649;51.836;8.330;2023-05-10T14:13:10;100534.66;;;24.25;nan
30967;BME280;17649;51.836;8.330;2023-05-10T14:16:12;100519.66;;;25.39;nan
30967;BME280;17649;51.836;8.330;2023-05-10T14:19:14;100519.53;;;25.91;nan
30967;BME280;17649;51.836;8.330;2023-05-10T14:22:14;100506.03;;;25.27;nan
30967;BME280;17649;51.836;8.330;2023-05-10T14:25:15;100516.88;;;23.41;nan
30967;BME280;17649;51.836;8.330;2023-05-10T14:28:15;100512.16;;;22.55;nan
30967;BME280;17649;51.836;8.330;2023-05-10T14:31:15;100512.00;;;21.82;nan
30967;BME280;17649;51.836;8.330;2023-05-10T14:34:17;100516.06;;;21.34;nan
30967;BME280;17649;51.836;8.330;2023-05-10T14:37:20;100511.47;;;21.70;nan
30967;BME280;17649;51.836;8.330;2023-05-10T14:40:20;100519.38;;;21.36;nan
30967;BME280;17649;51.836;8.330;2023-05-10T14:43:21;100512.94;;;21.30;nan
30967;BME280;17649;51.836;8.330;2023-05-10T14:46:21;100512.00;;;21.13;nan
30967;BME280;17649;51.836;8.330;2023-05-10T14:49:21;100508.66;;;21.63;nan
30967;BME280;17649;51.836;8.330;2023-05-10T14:52:22;100504.75;;;21.84;nan
30967;BME280;17649;51.836;8.330;2023-05-10T14:55:22;100506.53;;;21.33;nan
30967;BME280;17649;51.836;8.330;2023-05-10T14:58:23;100499.31;;;23.01;nan
30967;BME280;17649;51.836;8.330;2023-05-10T15:01:23;100497.44;;;23.81;nan
30967;BME280;17649;51.836;8.330;2023-05-10T15:04:23;100500.69;;;24.14;nan
30967;BME280;17649;51.836;8.330;2023-05-10T15:07:23;100512.88;;;23.45;nan
30967;BME280;17649;51.836;8.330;2023-05-10T15:10:24;100507.19;;;23.17;nan
30967;BME280;17649;51.836;8.330;2023-05-10T15:13:24;100516.81;;;22.77;nan
30967;BME280;17649;51.836;8.330;2023-05-10T15:16:24;100521.16;;;21.61;nan
30967;BME280;17649;51.836;8.330;2023-05-10T15:19:24;100517.09;;;20.71;nan
30967;BME280;17649;51.836;8.330;2023-05-10T15:22:25;100526.59;;;20.19;nan
30967;BME280;17649;51.836;8.330;2023-05-10T15:25:25;100525.44;;;20.49;nan
30967;BME280;17649;51.836;8.330;2023-05-10T15:28:26;100528.88;;;20.85;nan
30967;BME280;17649;51.836;8.330;2023-05-10T15:31:26;100524.66;;;20.92;nan
30967;BME280;17649;51.836;8.330;2023-05-10T15:34:27;100524.09;;;20.63;nan
30967;BME280;17649;51.836;8.330;2023-05-10T15:37:27;100533.50;;;20.20;nan
30967;BME280;17649;51.836;8.330;2023-05-10T15:40:28;100542.00;;;19.49;nan
30967;BME280;17649;51.836;8.330;2023-05-10T15:43:28;100565.00;;;17.91;nan
30967;BME280;17649;51.836;8.330;2023-05-10T15:46:28;100575.97;;;17.75;nan
30967;BME280;17649;51.836;8.330;2023-05-10T15:49:28;100585.59;;;17.54;nan
30967;BME280;17649;51.836;8.330;2023-05-10T15:52:29;100594.03;;;17.57;nan
30967;BME280;17649;51.836;8.330;2023-05-10T15:55:29;100603.88;;;17.23;nan
30967;BME280;17649;51.836;8.330;2023-05-10T15:58:29;100609.66;;;17.06;nan
30967;BME280;17649;51.836;8.330;2023-05-10T16:01:30;100612.09;;;16.98;nan
30967;BME280;17649;51.836;8.330;2023-05-10T16:04:31;100610.03;;;17.02;nan
30967;BME280;17649;51.836;8.330;2023-05-10T16:07:32;100628.63;;;16.87;nan
30967;BME280;17649;51.836;8.330;2023-05-10T16:10:33;100637.28;;;16.99;nan
30967;BME280;17649;51.836;8.330;2023-05-10T16:13:33;100638.69;;;16.49;nan
30967;BME280;17649;51.836;8.330;2023-05-10T16:16:34;100657.06;;;16.58;nan
30967;BME280;17649;51.836;8.330;2023-05-10T16:19:37;100649.53;;;16.87;nan
30967;BME280;17649;51.836;8.330;2023-05-10T16:25:48;100641.31;;;17.24;nan
30967;BME280;17649;51.836;8.330;2023-05-10T16:28:48;100640.09;;;17.70;nan
30967;BME280;17649;51.836;8.330;2023-05-10T16:35:26;100633.00;;;18.12;nan
30967;BME280;17649;51.836;8.330;2023-05-10T16:38:37;100634.69;;;18.23;nan
30967;BME280;17649;51.836;8.330;2023-05-10T16:41:38;100641.13;;;17.57;nan
30967;BME280;17649;51.836;8.330;2023-05-10T16:44:40;100655.59;;;17.41;nan
30967;BME280;17649;51.836;8.330;2023-05-10T16:47:41;100656.03;;;17.25;nan
30967;BME280;17649;51.836;8.330;2023-05-10T16:50:42;100663.34;;;17.10;nan